sensor_id;sensor_type;location;lat;lon;timestamp;temperature;humidity
20231;DHT22;10274;49.022;9.338;2023-07-13T00:00:10;18.00;1.00
20231;DHT22;10274;49.022;9.338;2023-07-13T00:02:39;18.00;99.90
20231;DHT22;10274;49.022;9.338;2023-07-13T00:05:06;18.00;99.90
20231;DHT22;10274;49.022;9.338;2023-07-13T00:07:33;17.80;99.90
20231;DHT22;10274;49.022;9.338;2023-07-13T00:10:00;17.90;99.90
20231;DHT22;10274;49.022;9.338;2023-07-13T00:12:29;18.00;99.90
20231;DHT22;10274;49.022;9.338;2023-07-13T00:14:57;17.90;1.00
20231;DHT22;10274;49.022;9.338;2023-07-13T00:17:25;17.90;1.00
20231;DHT22;10274;49.022;9.338;2023-07-13T00:19:54;18.10;1.00
20231;DHT22;10274;49.022;9.338;2023-07-13T00:22:22;18.30;92.90
20231;DHT22;10274;49.022;9.338;2023-07-13T00:24:51;18.50;1.00
20231;DHT22;10274;49.022;9.338;2023-07-13T00:27:18;18.50;99.90
20231;DHT22;10274;49.022;9.338;2023-07-13T00:29:44;18.50;99.90
20231;DHT22;10274;49.022;9.338;2023-07-13T00:32:11;18.60;99.90
20231;DHT22;10274;49.022;9.338;2023-07-13T00:34:38;18.50;99.90
20231;DHT22;10274;49.022;9.338;2023-07-13T00:37:07;18.50;99.90
20231;DHT22;10274;49.022;9.338;2023-07-13T00:39:34;18.50;99.90
20231;DHT22;10274;49.022;9.338;2023-07-13T00:42:01;18.50;99.90
20231;DHT22;10274;49.022;9.338;2023-07-13T00:44:28;18.40;99.90
20231;DHT22;10274;49.022;9.338;2023-07-13T00:46:55;18.40;99.90
20231;DHT22;10274;49.022;9.338;2023-07-13T00:49:25;18.30;99.90
20231;DHT22;10274;49.022;9.338;2023-07-13T00:51:56;18.30;99.90
20231;DHT22;10274;49.022;9.338;2023-07-13T00:54:29;18.30;1.00
20231;DHT22;10274;49.022;9.338;2023-07-13T00:56:58;18.30;1.00
20231;DHT22;10274;49.022;9.338;2023-07-13T00:59:26;18.20;99.90
20231;DHT22;10274;49.022;9.338;2023-07-13T01:01:54;18.20;1.00
20231;DHT22;10274;49.022;9.338;2023-07-13T01:04:22;18.20;1.00
20231;DHT22;10274;49.022;9.338;2023-07-13T01:06:49;18.10;1.00
20231;DHT22;10274;49.022;9.338;2023-07-13T01:09:16;18.00;1.00
20231;DHT22;10274;49.022;9.338;2023-07-13T01:11:44;18.00;99.90
20231;DHT22;10274;49.022;9.338;2023-07-13T01:14:12;18.00;1.00
20231;DHT22;10274;49.022;9.338;2023-07-13T01:16:40;18.00;99.90
20231;DHT22;10274;49.022;9.338;2023-07-13T01:19:26;18.00;1.00
20231;DHT22;10274;49.022;9.338;2023-07-13T01:22:03;17.90;99.90
20231;DHT22;10274;49.022;9.338;2023-07-13T01:24:30;17.80;99.90
20231;DHT22;10274;49.022;9.338;2023-07-13T01:26:56;17.70;1.00
20231;DHT22;10274;49.022;9.338;2023-07-13T01:29:23;17.70;30.20
20231;DHT22;10274;49.022;9.338;2023-07-13T01:31:50;17.50;99.90
20231;DHT22;10274;49.022;9.338;2023-07-13T01:34:16;17.40;99.90
20231;DHT22;10274;49.022;9.338;2023-07-13T01:36:43;17.10;99.90
20231;DHT22;10274;49.022;9.338;2023-07-13T01:39:11;17.00;1.00
20231;DHT22;10274;49.022;9.338;2023-07-13T01:41:38;17.00;1.00
20231;DHT22;10274;49.022;9.338;2023-07-13T01:44:05;17.00;99.90
20231;DHT22;10274;49.022;9.338;2023-07-13T01:46:31;16.80;99.90
20231;DHT22;10274;49.022;9.338;2023-07-13T01:48:58;16.40;1.00
20231;DHT22;10274;49.022;9.338;2023-07-13T01:51:25;16.20;1.00
20231;DHT22;10274;49.022;9.338;2023-07-13T01:53:51;16.00;1.00
20231;DHT22;10274;49.022;9.338;2023-07-13T01:56:20;15.70;1.00
20231;DHT22;10274;49.022;9.338;2023-07-13T01:58:46;15.90;1.00
20231;DHT22;10274;49.022;9.338;2023-07-13T02:01:13;16.10;1.00
20231;DHT22;10274;49.022;9.338;2023-07-13T02:03:40;16.10;1.00
20231;DHT22;10274;49.022;9.338;2023-07-13T02:06:07;15.90;1.00
20231;DHT22;10274;49.022;9.338;2023-07-13T02:08:33;15.60;1.00
20231;DHT22;10274;49.022;9.338;2023-07-13T02:11:02;15.40;1.00
20231;DHT22;10274;49.022;9.338;2023-07-13T02:13:30;15.20;1.00
20231;DHT22;10274;49.022;9.338;2023-07-13T02:15:57;15.20;1.00
20231;DHT22;10274;49.022;9.338;2023-07-13T02:18:24;15.10;5.00
20231;DHT22;10274;49.022;9.338;2023-07-13T02:20:50;15.00;14.10
20231;DHT22;10274;49.022;9.338;2023-07-13T02:23:17;15.00;36.20
20231;DHT22;10274;49.022;9.338;2023-07-13T02:25:44;15.20;1.00
20231;DHT22;10274;49.022;9.338;2023-07-13T02:28:11;15.20;1.00
20231;DHT22;10274;49.022;9.338;2023-07-13T02:30:39;15.10;1.00
20231;DHT22;10274;49.022;9.338;2023-07-13T02:33:05;15.30;1.00
20231;DHT22;10274;49.022;9.338;2023-07-13T02:35:32;15.30;1.00
20231;DHT22;10274;49.022;9.338;2023-07-13T02:37:59;15.30;1.00
20231;DHT22;10274;49.022;9.338;2023-07-13T02:42:53;15.20;1.00
20231;DHT22;10274;49.022;9.338;2023-07-13T02:45:19;15.10;1.00
20231;DHT22;10274;49.022;9.338;2023-07-13T02:47:47;14.90;1.00
20231;DHT22;10274;49.022;9.338;2023-07-13T02:50:14;14.50;1.00
20231;DHT22;10274;49.022;9.338;2023-07-13T02:52:41;14.40;38.20
20231;DHT22;10274;49.022;9.338;2023-07-13T02:55:08;14.50;45.90
20231;DHT22;10274;49.022;9.338;2023-07-13T02:57:35;14.40;59.20
20231;DHT22;10274;49.022;9.338;2023-07-13T03:00:03;14.50;47.10
20231;DHT22;10274;49.022;9.338;2023-07-13T03:02:31;14.60;29.10
20231;DHT22;10274;49.022;9.338;2023-07-13T03:05:00;14.40;43.40
20231;DHT22;10274;49.022;9.338;2023-07-13T03:07:27;14.20;40.80
20231;DHT22;10274;49.022;9.338;2023-07-13T03:09:55;14.00;81.00
20231;DHT22;10274;49.022;9.338;2023-07-13T03:12:22;14.20;56.80
20231;DHT22;10274;49.022;9.338;2023-07-13T03:14:50;14.30;53.20
20231;DHT22;10274;49.022;9.338;2023-07-13T03:17:17;14.20;38.40
20231;DHT22;10274;49.022;9.338;2023-07-13T03:19:43;14.20;46.10
20231;DHT22;10274;49.022;9.338;2023-07-13T03:22:11;14.30;37.60
20231;DHT22;10274;49.022;9.338;2023-07-13T03:24:38;14.30;25.20
20231;DHT22;10274;49.022;9.338;2023-07-13T03:27:06;14.40;9.30
20231;DHT22;10274;49.022;9.338;2023-07-13T03:29:33;14.30;1.00
20231;DHT22;10274;49.022;9.338;2023-07-13T03:31:59;14.40;4.50
20231;DHT22;10274;49.022;9.338;2023-07-13T03:34:26;14.50;1.00
20231;DHT22;10274;49.022;9.338;2023-07-13T03:36:54;14.50;1.00
20231;DHT22;10274;49.022;9.338;2023-07-13T03:39:22;14.50;1.00
20231;DHT22;10274;49.022;9.338;2023-07-13T03:41:49;14.60;1.00
20231;DHT22;10274;49.022;9.338;2023-07-13T03:44:17;14.60;1.00
20231;DHT22;10274;49.022;9.338;2023-07-13T03:46:44;14.60;1.00
20231;DHT22;10274;49.022;9.338;2023-07-13T03:49:11;14.60;1.00
20231;DHT22;10274;49.022;9.338;2023-07-13T03:51:38;14.60;1.00
20231;DHT22;10274;49.022;9.338;2023-07-13T03:54:05;14.60;1.00
20231;DHT22;10274;49.022;9.338;2023-07-13T03:56:33;14.60;1.00
20231;DHT22;10274;49.022;9.338;2023-07-13T03:59:00;14.60;1.00
20231;DHT22;10274;49.022;9.338;2023-07-13T04:01:27;14.70;1.00
20231;DHT22;10274;49.022;9.338;2023-07-13T04:03:54;14.70;1.00
20231;DHT22;10274;49.022;9.338;2023-07-13T04:06:22;14.60;1.00
20231;DHT22;10274;49.022;9.338;2023-07-13T04:08:52;14.20;55.50
20231;DHT22;10274;49.022;9.338;2023-07-13T04:11:20;14.40;44.90
20231;DHT22;10274;49.022;9.338;2023-07-13T04:13:49;14.60;45.60
20231;DHT22;10274;49.022;9.338;2023-07-13T04:16:16;14.70;1.00
20231;DHT22;10274;49.022;9.338;2023-07-13T04:18:44;14.70;1.00
20231;DHT22;10274;49.022;9.338;2023-07-13T04:21:12;14.80;1.00
20231;DHT22;10274;49.022;9.338;2023-07-13T04:23:39;14.70;18.10
20231;DHT22;10274;49.022;9.338;2023-07-13T04:26:06;14.50;50.70
20231;DHT22;10274;49.022;9.338;2023-07-13T04:28:33;14.30;66.90
20231;DHT22;10274;49.022;9.338;2023-07-13T04:31:01;14.10;98.40
20231;DHT22;10274;49.022;9.338;2023-07-13T04:33:28;13.90;99.90
20231;DHT22;10274;49.022;9.338;2023-07-13T04:35:56;13.80;99.90
20231;DHT22;10274;49.022;9.338;2023-07-13T04:38:23;13.90;99.90
20231;DHT22;10274;49.022;9.338;2023-07-13T04:40:51;14.00;99.90
20231;DHT22;10274;49.022;9.338;2023-07-13T04:43:18;14.10;99.90
20231;DHT22;10274;49.022;9.338;2023-07-13T04:45:45;14.20;99.90
20231;DHT22;10274;49.022;9.338;2023-07-13T04:48:13;14.30;99.90
20231;DHT22;10274;49.022;9.338;2023-07-13T04:50:39;13.90;99.90
20231;DHT22;10274;49.022;9.338;2023-07-13T04:53:06;13.90;99.90
20231;DHT22;10274;49.022;9.338;2023-07-13T04:55:33;13.90;99.90
20231;DHT22;10274;49.022;9.338;2023-07-13T04:57:59;14.10;99.90
20231;DHT22;10274;49.022;9.338;2023-07-13T05:00:28;14.30;99.90
20231;DHT22;10274;49.022;9.338;2023-07-13T05:02:55;14.50;99.90
20231;DHT22;10274;49.022;9.338;2023-07-13T05:05:24;14.50;99.90
20231;DHT22;10274;49.022;9.338;2023-07-13T05:07:51;14.50;99.90
20231;DHT22;10274;49.022;9.338;2023-07-13T05:10:18;14.50;99.90
20231;DHT22;10274;49.022;9.338;2023-07-13T05:12:45;14.70;99.90
20231;DHT22;10274;49.022;9.338;2023-07-13T05:15:11;14.90;98.40
20231;DHT22;10274;49.022;9.338;2023-07-13T05:17:38;15.00;67.10
20231;DHT22;10274;49.022;9.338;2023-07-13T05:20:06;15.20;31.50
20231;DHT22;10274;49.022;9.338;2023-07-13T05:22:34;15.30;28.00
20231;DHT22;10274;49.022;9.338;2023-07-13T05:25:01;15.30;1.00
20231;DHT22;10274;49.022;9.338;2023-07-13T05:27:28;15.50;1.00
20231;DHT22;10274;49.022;9.338;2023-07-13T05:29:54;15.60;1.00
20231;DHT22;10274;49.022;9.338;2023-07-13T05:32:21;15.80;1.00
20231;DHT22;10274;49.022;9.338;2023-07-13T05:34:48;15.80;1.00
20231;DHT22;10274;49.022;9.338;2023-07-13T05:37:14;15.90;1.00
20231;DHT22;10274;49.022;9.338;2023-07-13T05:39:42;16.10;1.00
20231;DHT22;10274;49.022;9.338;2023-07-13T05:42:09;16.10;1.00
20231;DHT22;10274;49.022;9.338;2023-07-13T05:44:36;16.10;1.00
20231;DHT22;10274;49.022;9.338;2023-07-13T05:47:03;16.20;1.00
20231;DHT22;10274;49.022;9.338;2023-07-13T05:49:30;16.20;2.20
20231;DHT22;10274;49.022;9.338;2023-07-13T05:51:57;16.20;1.00
20231;DHT22;10274;49.022;9.338;2023-07-13T05:54:23;16.30;1.00
20231;DHT22;10274;49.022;9.338;2023-07-13T05:56:51;16.50;1.00
20231;DHT22;10274;49.022;9.338;2023-07-13T05:59:18;16.60;1.00
20231;DHT22;10274;49.022;9.338;2023-07-13T06:01:45;16.70;1.00
20231;DHT22;10274;49.022;9.338;2023-07-13T06:04:11;16.80;1.00
20231;DHT22;10274;49.022;9.338;2023-07-13T06:06:38;16.80;1.00
20231;DHT22;10274;49.022;9.338;2023-07-13T06:09:05;16.80;1.00
20231;DHT22;10274;49.022;9.338;2023-07-13T06:11:32;16.90;1.00
20231;DHT22;10274;49.022;9.338;2023-07-13T06:14:01;17.00;1.00
20231;DHT22;10274;49.022;9.338;2023-07-13T06:16:29;17.20;1.00
20231;DHT22;10274;49.022;9.338;2023-07-13T06:18:56;17.30;99.90
20231;DHT22;10274;49.022;9.338;2023-07-13T06:21:23;17.60;1.00
20231;DHT22;10274;49.022;9.338;2023-07-13T06:23:51;17.70;99.90
20231;DHT22;10274;49.022;9.338;2023-07-13T06:26:18;17.90;1.00
20231;DHT22;10274;49.022;9.338;2023-07-13T06:28:45;18.20;1.00
20231;DHT22;10274;49.022;9.338;2023-07-13T06:31:14;18.60;99.90
20231;DHT22;10274;49.022;9.338;2023-07-13T06:33:44;18.50;1.00
20231;DHT22;10274;49.022;9.338;2023-07-13T06:36:10;18.40;99.90
20231;DHT22;10274;49.022;9.338;2023-07-13T06:38:38;18.50;99.90
20231;DHT22;10274;49.022;9.338;2023-07-13T06:41:07;18.60;1.00
20231;DHT22;10274;49.022;9.338;2023-07-13T06:43:34;18.60;1.00
20231;DHT22;10274;49.022;9.338;2023-07-13T06:46:00;18.60;1.00
20231;DHT22;10274;49.022;9.338;2023-07-13T06:48:28;18.70;1.00
20231;DHT22;10274;49.022;9.338;2023-07-13T06:50:55;18.90;99.90
20231;DHT22;10274;49.022;9.338;2023-07-13T06:53:22;19.30;99.90
20231;DHT22;10274;49.022;9.338;2023-07-13T06:55:49;19.50;1.00
20231;DHT22;10274;49.022;9.338;2023-07-13T06:58:17;19.60;1.00
20231;DHT22;10274;49.022;9.338;2023-07-13T07:00:44;19.70;1.00
20231;DHT22;10274;49.022;9.338;2023-07-13T07:03:10;19.70;1.00
20231;DHT22;10274;49.022;9.338;2023-07-13T07:05:39;19.60;1.00
20231;DHT22;10274;49.022;9.338;2023-07-13T07:08:05;19.30;1.00
20231;DHT22;10274;49.022;9.338;2023-07-13T07:10:33;19.10;1.00
20231;DHT22;10274;49.022;9.338;2023-07-13T07:13:01;19.50;1.00
20231;DHT22;10274;49.022;9.338;2023-07-13T07:15:28;19.70;1.00
20231;DHT22;10274;49.022;9.338;2023-07-13T07:17:55;19.80;1.00
20231;DHT22;10274;49.022;9.338;2023-07-13T07:20:22;19.90;99.90
20231;DHT22;10274;49.022;9.338;2023-07-13T07:22:50;19.90;99.90
20231;DHT22;10274;49.022;9.338;2023-07-13T07:25:16;20.00;99.90
20231;DHT22;10274;49.022;9.338;2023-07-13T07:27:43;20.20;99.90
20231;DHT22;10274;49.022;9.338;2023-07-13T07:30:11;20.50;99.90
20231;DHT22;10274;49.022;9.338;2023-07-13T07:32:38;20.80;99.90
20231;DHT22;10274;49.022;9.338;2023-07-13T07:35:06;20.80;99.90
20231;DHT22;10274;49.022;9.338;2023-07-13T07:37:32;20.90;99.90
20231;DHT22;10274;49.022;9.338;2023-07-13T07:40:00;21.10;1.00
20231;DHT22;10274;49.022;9.338;2023-07-13T07:42:28;21.20;1.00
20231;DHT22;10274;49.022;9.338;2023-07-13T07:44:54;21.20;1.00
20231;DHT22;10274;49.022;9.338;2023-07-13T07:47:21;21.30;1.00
20231;DHT22;10274;49.022;9.338;2023-07-13T07:49:48;21.00;1.00
20231;DHT22;10274;49.022;9.338;2023-07-13T07:52:15;21.40;1.00
20231;DHT22;10274;49.022;9.338;2023-07-13T07:54:42;21.60;1.00
20231;DHT22;10274;49.022;9.338;2023-07-13T07:57:10;21.60;99.90
20231;DHT22;10274;49.022;9.338;2023-07-13T07:59:37;21.80;99.90
20231;DHT22;10274;49.022;9.338;2023-07-13T08:02:04;22.40;99.90
20231;DHT22;10274;49.022;9.338;2023-07-13T08:04:31;22.50;99.90
20231;DHT22;10274;49.022;9.338;2023-07-13T08:06:57;22.30;70.10
20231;DHT22;10274;49.022;9.338;2023-07-13T08:09:24;23.70;1.00
20231;DHT22;10274;49.022;9.338;2023-07-13T08:11:51;25.20;1.00
20231;DHT22;10274;49.022;9.338;2023-07-13T08:14:21;24.90;1.00
20231;DHT22;10274;49.022;9.338;2023-07-13T08:16:48;24.10;1.00
20231;DHT22;10274;49.022;9.338;2023-07-13T08:19:14;25.50;1.00
20231;DHT22;10274;49.022;9.338;2023-07-13T08:21:41;26.80;1.00
20231;DHT22;10274;49.022;9.338;2023-07-13T08:24:08;27.20;1.00
20231;DHT22;10274;49.022;9.338;2023-07-13T08:26:35;27.40;99.90
20231;DHT22;10274;49.022;9.338;2023-07-13T08:29:02;27.90;99.90
20231;DHT22;10274;49.022;9.338;2023-07-13T08:31:30;26.80;99.90
20231;DHT22;10274;49.022;9.338;2023-07-13T08:33:56;26.90;99.90
20231;DHT22;10274;49.022;9.338;2023-07-13T08:36:25;27.80;99.90
20231;DHT22;10274;49.022;9.338;2023-07-13T08:38:52;28.20;99.90
20231;DHT22;10274;49.022;9.338;2023-07-13T08:41:20;29.50;99.90
20231;DHT22;10274;49.022;9.338;2023-07-13T08:43:49;28.90;99.90
20231;DHT22;10274;49.022;9.338;2023-07-13T08:46:21;28.80;99.90
20231;DHT22;10274;49.022;9.338;2023-07-13T08:48:53;28.70;99.90
20231;DHT22;10274;49.022;9.338;2023-07-13T08:51:28;28.70;99.90
20231;DHT22;10274;49.022;9.338;2023-07-13T08:53:59;29.20;99.90
20231;DHT22;10274;49.022;9.338;2023-07-13T08:56:29;28.20;99.90
20231;DHT22;10274;49.022;9.338;2023-07-13T08:58:58;27.70;99.90
20231;DHT22;10274;49.022;9.338;2023-07-13T09:01:33;29.20;99.90
20231;DHT22;10274;49.022;9.338;2023-07-13T09:04:13;29.30;99.90
20231;DHT22;10274;49.022;9.338;2023-07-13T09:06:49;30.00;99.90
20231;DHT22;10274;49.022;9.338;2023-07-13T09:09:24;29.10;99.90
20231;DHT22;10274;49.022;9.338;2023-07-13T09:11:59;29.10;99.90
20231;DHT22;10274;49.022;9.338;2023-07-13T09:17:12;30.20;99.90
20231;DHT22;10274;49.022;9.338;2023-07-13T09:19:43;30.10;99.90
20231;DHT22;10274;49.022;9.338;2023-07-13T09:22:16;29.60;99.90
20231;DHT22;10274;49.022;9.338;2023-07-13T09:24:55;29.40;99.90
20231;DHT22;10274;49.022;9.338;2023-07-13T09:27:26;29.40;99.90
20231;DHT22;10274;49.022;9.338;2023-07-13T09:30:00;29.30;99.90
20231;DHT22;10274;49.022;9.338;2023-07-13T09:32:29;29.10;99.90
20231;DHT22;10274;49.022;9.338;2023-07-13T09:34:57;28.90;99.90
20231;DHT22;10274;49.022;9.338;2023-07-13T09:37:30;28.30;99.90
20231;DHT22;10274;49.022;9.338;2023-07-13T09:39:59;27.50;99.90
20231;DHT22;10274;49.022;9.338;2023-07-13T09:42:30;28.70;99.90
20231;DHT22;10274;49.022;9.338;2023-07-13T09:44:59;27.60;99.90
20231;DHT22;10274;49.022;9.338;2023-07-13T09:47:29;28.30;99.90
20231;DHT22;10274;49.022;9.338;2023-07-13T09:49:59;28.30;99.90
20231;DHT22;10274;49.022;9.338;2023-07-13T09:52:28;28.50;99.90
20231;DHT22;10274;49.022;9.338;2023-07-13T09:55:23;29.30;99.90
20231;DHT22;10274;49.022;9.338;2023-07-13T09:57:50;30.20;99.90
20231;DHT22;10274;49.022;9.338;2023-07-13T10:00:21;28.90;99.90
20231;DHT22;10274;49.022;9.338;2023-07-13T10:02:58;28.40;99.90
20231;DHT22;10274;49.022;9.338;2023-07-13T10:05:26;27.90;99.90
20231;DHT22;10274;49.022;9.338;2023-07-13T10:07:56;28.60;99.90
20231;DHT22;10274;49.022;9.338;2023-07-13T10:10:23;28.20;99.90
20231;DHT22;10274;49.022;9.338;2023-07-13T10:12:50;28.10;99.90
20231;DHT22;10274;49.022;9.338;2023-07-13T10:15:20;28.70;99.90
20231;DHT22;10274;49.022;9.338;2023-07-13T10:17:48;28.40;99.90
20231;DHT22;10274;49.022;9.338;2023-07-13T10:20:16;29.20;99.90
20231;DHT22;10274;49.022;9.338;2023-07-13T10:22:50;29.20;99.90
20231;DHT22;10274;49.022;9.338;2023-07-13T10:25:20;27.90;99.90
20231;DHT22;10274;49.022;9.338;2023-07-13T10:27:50;27.70;99.90
20231;DHT22;10274;49.022;9.338;2023-07-13T10:30:19;28.90;99.90
20231;DHT22;10274;49.022;9.338;2023-07-13T10:32:49;29.50;99.90
20231;DHT22;10274;49.022;9.338;2023-07-13T10:35:19;27.40;99.90
20231;DHT22;10274;49.022;9.338;2023-07-13T10:37:52;26.30;99.90
20231;DHT22;10274;49.022;9.338;2023-07-13T10:40:23;26.40;99.90
20231;DHT22;10274;49.022;9.338;2023-07-13T10:42:54;27.00;99.90
20231;DHT22;10274;49.022;9.338;2023-07-13T10:45:23;27.30;99.90
20231;DHT22;10274;49.022;9.338;2023-07-13T10:47:52;26.60;99.90
20231;DHT22;10274;49.022;9.338;2023-07-13T10:50:23;26.10;99.90
20231;DHT22;10274;49.022;9.338;2023-07-13T10:52:54;25.50;99.90
20231;DHT22;10274;49.022;9.338;2023-07-13T10:55:37;25.70;99.90
20231;DHT22;10274;49.022;9.338;2023-07-13T10:58:12;26.30;99.90
20231;DHT22;10274;49.022;9.338;2023-07-13T11:00:46;26.50;99.90
20231;DHT22;10274;49.022;9.338;2023-07-13T11:03:16;27.10;99.90
20231;DHT22;10274;49.022;9.338;2023-07-13T11:05:44;27.50;99.90
20231;DHT22;10274;49.022;9.338;2023-07-13T11:08:20;27.90;99.90
20231;DHT22;10274;49.022;9.338;2023-07-13T11:10:51;27.80;99.90
20231;DHT22;10274;49.022;9.338;2023-07-13T11:13:55;28.70;99.90
20231;DHT22;10274;49.022;9.338;2023-07-13T11:16:41;29.70;99.90
20231;DHT22;10274;49.022;9.338;2023-07-13T11:19:25;30.60;99.90
20231;DHT22;10274;49.022;9.338;2023-07-13T11:22:09;30.30;99.90
20231;DHT22;10274;49.022;9.338;2023-07-13T11:24:57;29.80;99.90
20231;DHT22;10274;49.022;9.338;2023-07-13T11:27:34;29.90;99.90
20231;DHT22;10274;49.022;9.338;2023-07-13T11:30:22;29.60;99.90
20231;DHT22;10274;49.022;9.338;2023-07-13T11:32:51;29.60;99.90
20231;DHT22;10274;49.022;9.338;2023-07-13T11:35:23;29.70;99.90
20231;DHT22;10274;49.022;9.338;2023-07-13T11:37:51;29.40;99.90
20231;DHT22;10274;49.022;9.338;2023-07-13T11:40:22;29.30;99.90
20231;DHT22;10274;49.022;9.338;2023-07-13T11:42:51;28.50;99.90
20231;DHT22;10274;49.022;9.338;2023-07-13T11:45:21;28.70;99.90
20231;DHT22;10274;49.022;9.338;2023-07-13T11:47:49;28.80;99.90
20231;DHT22;10274;49.022;9.338;2023-07-13T11:50:20;28.30;99.90
20231;DHT22;10274;49.022;9.338;2023-07-13T11:52:48;28.10;99.90
20231;DHT22;10274;49.022;9.338;2023-07-13T11:55:20;27.00;99.90
20231;DHT22;10274;49.022;9.338;2023-07-13T11:57:51;27.40;99.90
20231;DHT22;10274;49.022;9.338;2023-07-13T12:00:22;28.30;99.90
20231;DHT22;10274;49.022;9.338;2023-07-13T12:02:51;29.50;99.90
20231;DHT22;10274;49.022;9.338;2023-07-13T12:05:19;28.20;99.90
20231;DHT22;10274;49.022;9.338;2023-07-13T12:07:47;28.10;99.90
20231;DHT22;10274;49.022;9.338;2023-07-13T12:10:20;27.20;99.90
20231;DHT22;10274;49.022;9.338;2023-07-13T12:12:51;27.50;99.90
20231;DHT22;10274;49.022;9.338;2023-07-13T12:15:18;27.80;99.90
20231;DHT22;10274;49.022;9.338;2023-07-13T12:17:47;27.50;99.90
20231;DHT22;10274;49.022;9.338;2023-07-13T12:20:20;27.50;99.90
20231;DHT22;10274;49.022;9.338;2023-07-13T12:22:48;27.50;99.90
20231;DHT22;10274;49.022;9.338;2023-07-13T12:25:15;27.10;99.90
20231;DHT22;10274;49.022;9.338;2023-07-13T12:27:47;27.20;99.90
20231;DHT22;10274;49.022;9.338;2023-07-13T12:30:26;27.70;99.90
20231;DHT22;10274;49.022;9.338;2023-07-13T12:32:59;27.70;99.90
20231;DHT22;10274;49.022;9.338;2023-07-13T12:35:27;27.60;99.90
20231;DHT22;10274;49.022;9.338;2023-07-13T12:37:57;26.90;99.90
20231;DHT22;10274;49.022;9.338;2023-07-13T12:40:32;27.00;99.90
20231;DHT22;10274;49.022;9.338;2023-07-13T12:43:01;26.60;99.90
20231;DHT22;10274;49.022;9.338;2023-07-13T12:45:30;26.90;99.90
20231;DHT22;10274;49.022;9.338;2023-07-13T12:47:58;28.00;99.90
20231;DHT22;10274;49.022;9.338;2023-07-13T12:50:29;28.90;99.40
20231;DHT22;10274;49.022;9.338;2023-07-13T12:53:02;28.50;99.90
20231;DHT22;10274;49.022;9.338;2023-07-13T12:55:29;28.40;99.90
20231;DHT22;10274;49.022;9.338;2023-07-13T12:58:02;27.60;97.20
20231;DHT22;10274;49.022;9.338;2023-07-13T13:00:31;28.10;98.60
20231;DHT22;10274;49.022;9.338;2023-07-13T13:03:03;28.70;96.80
20231;DHT22;10274;49.022;9.338;2023-07-13T13:05:32;29.20;99.90
20231;DHT22;10274;49.022;9.338;2023-07-13T13:07:59;29.00;92.60
20231;DHT22;10274;49.022;9.338;2023-07-13T13:10:26;29.30;90.60
20231;DHT22;10274;49.022;9.338;2023-07-13T13:12:53;29.50;93.90
20231;DHT22;10274;49.022;9.338;2023-07-13T13:15:21;29.20;83.10
20231;DHT22;10274;49.022;9.338;2023-07-13T13:17:48;28.70;92.00
20231;DHT22;10274;49.022;9.338;2023-07-13T13:20:15;28.90;96.10
20231;DHT22;10274;49.022;9.338;2023-07-13T13:22:43;28.90;84.30
20231;DHT22;10274;49.022;9.338;2023-07-13T13:25:10;29.00;81.00
20231;DHT22;10274;49.022;9.338;2023-07-13T13:27:37;28.70;69.10
20231;DHT22;10274;49.022;9.338;2023-07-13T13:30:10;28.00;72.70
20231;DHT22;10274;49.022;9.338;2023-07-13T13:32:39;28.00;68.00
20231;DHT22;10274;49.022;9.338;2023-07-13T13:35:12;28.40;81.10
20231;DHT22;10274;49.022;9.338;2023-07-13T13:37:39;27.60;90.10
20231;DHT22;10274;49.022;9.338;2023-07-13T13:40:14;27.20;97.40
20231;DHT22;10274;49.022;9.338;2023-07-13T13:42:40;27.80;98.40
20231;DHT22;10274;49.022;9.338;2023-07-13T13:45:09;27.40;84.60
20231;DHT22;10274;49.022;9.338;2023-07-13T13:47:36;27.60;86.40
20231;DHT22;10274;49.022;9.338;2023-07-13T13:50:12;28.30;96.10
20231;DHT22;10274;49.022;9.338;2023-07-13T13:52:40;28.60;99.90
20231;DHT22;10274;49.022;9.338;2023-07-13T13:55:12;28.90;99.90
20231;DHT22;10274;49.022;9.338;2023-07-13T13:57:38;28.70;89.00
20231;DHT22;10274;49.022;9.338;2023-07-13T14:00:08;28.60;85.40
20231;DHT22;10274;49.022;9.338;2023-07-13T14:02:37;27.80;74.50
20231;DHT22;10274;49.022;9.338;2023-07-13T14:05:05;27.90;88.10
20231;DHT22;10274;49.022;9.338;2023-07-13T14:07:34;28.40;91.70
20231;DHT22;10274;49.022;9.338;2023-07-13T14:10:01;28.80;99.90
20231;DHT22;10274;49.022;9.338;2023-07-13T14:12:28;28.70;99.90
20231;DHT22;10274;49.022;9.338;2023-07-13T14:14:56;28.90;96.00
20231;DHT22;10274;49.022;9.338;2023-07-13T14:17:25;28.70;95.40
20231;DHT22;10274;49.022;9.338;2023-07-13T14:19:53;28.70;97.50
20231;DHT22;10274;49.022;9.338;2023-07-13T14:22:23;28.90;97.00
20231;DHT22;10274;49.022;9.338;2023-07-13T14:24:51;28.80;96.80
20231;DHT22;10274;49.022;9.338;2023-07-13T14:27:18;28.90;94.00
20231;DHT22;10274;49.022;9.338;2023-07-13T14:29:45;28.60;80.30
20231;DHT22;10274;49.022;9.338;2023-07-13T14:32:12;28.70;75.20
20231;DHT22;10274;49.022;9.338;2023-07-13T14:34:39;28.60;75.10
20231;DHT22;10274;49.022;9.338;2023-07-13T14:37:13;28.50;88.40
20231;DHT22;10274;49.022;9.338;2023-07-13T14:39:40;28.00;64.80
20231;DHT22;10274;49.022;9.338;2023-07-13T14:42:10;27.80;70.30
20231;DHT22;10274;49.022;9.338;2023-07-13T14:44:38;28.30;72.30
20231;DHT22;10274;49.022;9.338;2023-07-13T14:47:06;28.20;79.70
20231;DHT22;10274;49.022;9.338;2023-07-13T14:49:35;28.60;90.00
20231;DHT22;10274;49.022;9.338;2023-07-13T14:52:09;28.40;87.70
20231;DHT22;10274;49.022;9.338;2023-07-13T14:54:37;28.20;74.70
20231;DHT22;10274;49.022;9.338;2023-07-13T14:57:10;28.10;79.30
20231;DHT22;10274;49.022;9.338;2023-07-13T14:59:38;28.20;80.20
20231;DHT22;10274;49.022;9.338;2023-07-13T15:02:15;28.10;83.40
20231;DHT22;10274;49.022;9.338;2023-07-13T15:04:42;28.10;88.80
20231;DHT22;10274;49.022;9.338;2023-07-13T15:07:10;28.20;85.70
20231;DHT22;10274;49.022;9.338;2023-07-13T15:09:38;28.00;84.60
20231;DHT22;10274;49.022;9.338;2023-07-13T15:12:06;28.00;85.40
20231;DHT22;10274;49.022;9.338;2023-07-13T15:14:34;28.00;82.50
20231;DHT22;10274;49.022;9.338;2023-07-13T15:17:01;28.00;78.20
20231;DHT22;10274;49.022;9.338;2023-07-13T15:19:28;28.10;76.20
20231;DHT22;10274;49.022;9.338;2023-07-13T15:21:55;28.00;77.10
20231;DHT22;10274;49.022;9.338;2023-07-13T15:24:23;28.10;83.10
20231;DHT22;10274;49.022;9.338;2023-07-13T15:26:50;27.80;75.90
20231;DHT22;10274;49.022;9.338;2023-07-13T15:29:17;27.70;83.00
20231;DHT22;10274;49.022;9.338;2023-07-13T15:31:45;27.50;83.40
20231;DHT22;10274;49.022;9.338;2023-07-13T15:34:15;27.40;81.90
20231;DHT22;10274;49.022;9.338;2023-07-13T15:36:42;27.50;83.90
20231;DHT22;10274;49.022;9.338;2023-07-13T15:39:13;27.50;75.80
20231;DHT22;10274;49.022;9.338;2023-07-13T15:41:41;27.30;63.00
20231;DHT22;10274;49.022;9.338;2023-07-13T15:44:23;27.10;62.80
20231;DHT22;10274;49.022;9.338;2023-07-13T15:46:52;27.30;67.80
20231;DHT22;10274;49.022;9.338;2023-07-13T15:49:19;27.40;67.70